sensor_id;sensor_type;location;lat;lon;timestamp;P1;durP1;ratioP1;P2;durP2;ratioP2
24663;SDS011;12791;50.992;13.788;2022-08-25T00:01:01;13.23;;;11.93;;
24663;SDS011;12791;50.992;13.788;2022-08-25T00:03:33;14.70;;;12.90;;
24663;SDS011;12791;50.992;13.788;2022-08-25T00:06:00;12.85;;;11.65;;
24663;SDS011;12791;50.992;13.788;2022-08-25T00:08:26;13.88;;;12.48;;
24663;SDS011;12791;50.992;13.788;2022-08-25T00:10:53;14.30;;;13.00;;
24663;SDS011;12791;50.992;13.788;2022-08-25T00:13:21;13.93;;;12.23;;
24663;SDS011;12791;50.992;13.788;2022-08-25T00:15:48;13.30;;;12.10;;
24663;SDS011;12791;50.992;13.788;2022-08-25T00:18:14;13.27;;;12.00;;
24663;SDS011;12791;50.992;13.788;2022-08-25T00:20:41;12.68;;;11.48;;
24663;SDS011;12791;50.992;13.788;2022-08-25T00:23:08;13.13;;;11.93;;
24663;SDS011;12791;50.992;13.788;2022-08-25T00:25:34;12.88;;;11.68;;
24663;SDS011;12791;50.992;13.788;2022-08-25T00:28:01;14.52;;;13.02;;
24663;SDS011;12791;50.992;13.788;2022-08-25T00:30:29;13.68;;;11.98;;
24663;SDS011;12791;50.992;13.788;2022-08-25T00:32:56;13.40;;;11.80;;
24663;SDS011;12791;50.992;13.788;2022-08-25T00:35:23;13.57;;;12.35;;
24663;SDS011;12791;50.992;13.788;2022-08-25T00:37:50;13.65;;;12.45;;
24663;SDS011;12791;50.992;13.788;2022-08-25T00:40:17;13.77;;;12.52;;
24663;SDS011;12791;50.992;13.788;2022-08-25T00:42:44;14.82;;;13.32;;
24663;SDS011;12791;50.992;13.788;2022-08-25T00:45:10;14.52;;;12.13;;
24663;SDS011;12791;50.992;13.788;2022-08-25T00:47:39;13.77;;;12.38;;
24663;SDS011;12791;50.992;13.788;2022-08-25T00:50:06;13.35;;;12.15;;
24663;SDS011;12791;50.992;13.788;2022-08-25T00:52:35;14.23;;;12.82;;
24663;SDS011;12791;50.992;13.788;2022-08-25T00:55:06;13.90;;;12.52;;
24663;SDS011;12791;50.992;13.788;2022-08-25T00:57:37;13.35;;;11.98;;
24663;SDS011;12791;50.992;13.788;2022-08-25T01:00:09;13.15;;;11.95;;
24663;SDS011;12791;50.992;13.788;2022-08-25T01:02:40;14.07;;;12.68;;
24663;SDS011;12791;50.992;13.788;2022-08-25T01:05:06;13.02;;;11.70;;
24663;SDS011;12791;50.992;13.788;2022-08-25T01:07:34;14.65;;;12.55;;
24663;SDS011;12791;50.992;13.788;2022-08-25T01:10:02;15.30;;;12.27;;
24663;SDS011;12791;50.992;13.788;2022-08-25T01:12:31;15.13;;;13.63;;
24663;SDS011;12791;50.992;13.788;2022-08-25T01:14:58;18.33;;;13.63;;
24663;SDS011;12791;50.992;13.788;2022-08-25T01:17:31;14.27;;;12.70;;
24663;SDS011;12791;50.992;13.788;2022-08-25T01:20:01;13.65;;;12.25;;
24663;SDS011;12791;50.992;13.788;2022-08-25T01:22:29;15.52;;;12.82;;
24663;SDS011;12791;50.992;13.788;2022-08-25T01:24:58;14.35;;;12.85;;
24663;SDS011;12791;50.992;13.788;2022-08-25T01:27:28;15.45;;;12.52;;
24663;SDS011;12791;50.992;13.788;2022-08-25T01:29:55;14.35;;;12.77;;
24663;SDS011;12791;50.992;13.788;2022-08-25T01:32:22;13.27;;;12.05;;
24663;SDS011;12791;50.992;13.788;2022-08-25T01:34:49;15.80;;;13.68;;
24663;SDS011;12791;50.992;13.788;2022-08-25T01:37:16;14.85;;;13.35;;
24663;SDS011;12791;50.992;13.788;2022-08-25T01:39:46;13.40;;;12.15;;
24663;SDS011;12791;50.992;13.788;2022-08-25T01:44:59;13.85;;;12.45;;
24663;SDS011;12791;50.992;13.788;2022-08-25T01:47:25;14.43;;;13.02;;
24663;SDS011;12791;50.992;13.788;2022-08-25T01:49:52;13.10;;;11.90;;
24663;SDS011;12791;50.992;13.788;2022-08-25T01:52:20;15.30;;;13.75;;
24663;SDS011;12791;50.992;13.788;2022-08-25T01:54:51;14.60;;;12.90;;
24663;SDS011;12791;50.992;13.788;2022-08-25T01:57:18;15.23;;;13.68;;
24663;SDS011;12791;50.992;13.788;2022-08-25T01:59:46;15.40;;;12.07;;
24663;SDS011;12791;50.992;13.788;2022-08-25T02:02:13;14.38;;;12.10;;
24663;SDS011;12791;50.992;13.788;2022-08-25T02:04:39;15.73;;;12.75;;
24663;SDS011;12791;50.992;13.788;2022-08-25T02:07:06;12.77;;;11.57;;
24663;SDS011;12791;50.992;13.788;2022-08-25T02:09:34;13.95;;;12.52;;
24663;SDS011;12791;50.992;13.788;2022-08-25T02:12:04;14.13;;;12.68;;
24663;SDS011;12791;50.992;13.788;2022-08-25T02:14:33;14.60;;;13.20;;
24663;SDS011;12791;50.992;13.788;2022-08-25T02:17:00;13.35;;;11.85;;
24663;SDS011;12791;50.992;13.788;2022-08-25T02:19:28;15.48;;;11.88;;
24663;SDS011;12791;50.992;13.788;2022-08-25T02:21:55;12.98;;;11.88;;
24663;SDS011;12791;50.992;13.788;2022-08-25T02:24:23;13.57;;;12.27;;
24663;SDS011;12791;50.992;13.788;2022-08-25T02:26:50;15.40;;;13.90;;
24663;SDS011;12791;50.992;13.788;2022-08-25T02:29:18;14.57;;;13.02;;
24663;SDS011;12791;50.992;13.788;2022-08-25T02:31:44;12.95;;;11.50;;
24663;SDS011;12791;50.992;13.788;2022-08-25T02:34:11;14.30;;;12.90;;
24663;SDS011;12791;50.992;13.788;2022-08-25T02:36:39;17.67;;;12.95;;
24663;SDS011;12791;50.992;13.788;2022-08-25T02:39:06;15.82;;;12.85;;
24663;SDS011;12791;50.992;13.788;2022-08-25T02:41:34;16.63;;;13.15;;
24663;SDS011;12791;50.992;13.788;2022-08-25T02:44:03;15.23;;;13.70;;
24663;SDS011;12791;50.992;13.788;2022-08-25T02:46:31;14.18;;;12.77;;
24663;SDS011;12791;50.992;13.788;2022-08-25T02:48:58;15.25;;;13.27;;
24663;SDS011;12791;50.992;13.788;2022-08-25T02:51:25;13.98;;;12.68;;
24663;SDS011;12791;50.992;13.788;2022-08-25T02:53:54;14.23;;;12.80;;
24663;SDS011;12791;50.992;13.788;2022-08-25T02:56:21;13.88;;;12.35;;
24663;SDS011;12791;50.992;13.788;2022-08-25T02:58:49;13.40;;;11.98;;
24663;SDS011;12791;50.992;13.788;2022-08-25T03:01:16;14.20;;;12.05;;
24663;SDS011;12791;50.992;13.788;2022-08-25T03:03:44;16.35;;;12.50;;
24663;SDS011;12791;50.992;13.788;2022-08-25T03:06:13;13.93;;;12.65;;
24663;SDS011;12791;50.992;13.788;2022-08-25T03:08:42;15.82;;;13.25;;
24663;SDS011;12791;50.992;13.788;2022-08-25T03:11:09;19.00;;;13.40;;
24663;SDS011;12791;50.992;13.788;2022-08-25T03:13:36;13.43;;;12.07;;
24663;SDS011;12791;50.992;13.788;2022-08-25T03:16:03;13.15;;;11.90;;
24663;SDS011;12791;50.992;13.788;2022-08-25T03:18:31;12.93;;;11.70;;
24663;SDS011;12791;50.992;13.788;2022-08-25T03:20:59;13.32;;;12.00;;
24663;SDS011;12791;50.992;13.788;2022-08-25T03:23:27;13.15;;;11.98;;
24663;SDS011;12791;50.992;13.788;2022-08-25T03:25:54;12.32;;;11.23;;
24663;SDS011;12791;50.992;13.788;2022-08-25T03:28:38;13.35;;;11.90;;
24663;SDS011;12791;50.992;13.788;2022-08-25T03:31:05;13.52;;;12.10;;
24663;SDS011;12791;50.992;13.788;2022-08-25T03:33:33;14.55;;;13.15;;
24663;SDS011;12791;50.992;13.788;2022-08-25T03:36:03;14.65;;;13.25;;
24663;SDS011;12791;50.992;13.788;2022-08-25T03:38:30;13.20;;;11.77;;
24663;SDS011;12791;50.992;13.788;2022-08-25T03:40:57;14.07;;;12.57;;
24663;SDS011;12791;50.992;13.788;2022-08-25T03:43:23;13.98;;;12.48;;
24663;SDS011;12791;50.992;13.788;2022-08-25T03:45:50;13.98;;;12.52;;
24663;SDS011;12791;50.992;13.788;2022-08-25T03:48:17;14.63;;;13.13;;
24663;SDS011;12791;50.992;13.788;2022-08-25T03:50:44;14.00;;;12.50;;
24663;SDS011;12791;50.992;13.788;2022-08-25T03:53:13;14.05;;;12.68;;
24663;SDS011;12791;50.992;13.788;2022-08-25T03:55:39;13.05;;;11.68;;
24663;SDS011;12791;50.992;13.788;2022-08-25T03:58:06;14.98;;;12.70;;
24663;SDS011;12791;50.992;13.788;2022-08-25T04:00:33;14.07;;;12.60;;
24663;SDS011;12791;50.992;13.788;2022-08-25T04:03:00;12.18;;;11.00;;
24663;SDS011;12791;50.992;13.788;2022-08-25T04:05:27;13.15;;;11.90;;
24663;SDS011;12791;50.992;13.788;2022-08-25T04:07:53;13.85;;;12.45;;
24663;SDS011;12791;50.992;13.788;2022-08-25T04:10:22;14.30;;;12.82;;
24663;SDS011;12791;50.992;13.788;2022-08-25T04:12:48;17.38;;;13.27;;
24663;SDS011;12791;50.992;13.788;2022-08-25T04:15:15;15.48;;;13.98;;
24663;SDS011;12791;50.992;13.788;2022-08-25T04:17:42;20.88;;;13.20;;
24663;SDS011;12791;50.992;13.788;2022-08-25T04:20:10;17.05;;;13.65;;
24663;SDS011;12791;50.992;13.788;2022-08-25T04:22:37;14.38;;;12.85;;
24663;SDS011;12791;50.992;13.788;2022-08-25T04:25:05;15.18;;;13.75;;
24663;SDS011;12791;50.992;13.788;2022-08-25T04:27:34;14.98;;;13.23;;
24663;SDS011;12791;50.992;13.788;2022-08-25T04:30:02;15.98;;;14.27;;
24663;SDS011;12791;50.992;13.788;2022-08-25T04:32:29;15.77;;;14.15;;
24663;SDS011;12791;50.992;13.788;2022-08-25T04:34:56;12.90;;;11.70;;
24663;SDS011;12791;50.992;13.788;2022-08-25T04:37:23;14.15;;;12.70;;
24663;SDS011;12791;50.992;13.788;2022-08-25T04:39:50;14.35;;;12.82;;
24663;SDS011;12791;50.992;13.788;2022-08-25T04:42:16;16.30;;;14.65;;
24663;SDS011;12791;50.992;13.788;2022-08-25T04:44:44;19.02;;;14.30;;
24663;SDS011;12791;50.992;13.788;2022-08-25T04:47:11;15.15;;;13.65;;
24663;SDS011;12791;50.992;13.788;2022-08-25T04:49:38;15.23;;;13.73;;
24663;SDS011;12791;50.992;13.788;2022-08-25T04:52:05;16.05;;;14.35;;
24663;SDS011;12791;50.992;13.788;2022-08-25T04:54:31;15.65;;;14.00;;
24663;SDS011;12791;50.992;13.788;2022-08-25T04:56:58;16.73;;;14.95;;
24663;SDS011;12791;50.992;13.788;2022-08-25T04:59:25;16.55;;;14.68;;
24663;SDS011;12791;50.992;13.788;2022-08-25T05:01:54;18.35;;;14.75;;
24663;SDS011;12791;50.992;13.788;2022-08-25T05:04:21;18.38;;;14.77;;
24663;SDS011;12791;50.992;13.788;2022-08-25T05:06:48;18.70;;;14.90;;
24663;SDS011;12791;50.992;13.788;2022-08-25T05:09:15;16.90;;;15.18;;
24663;SDS011;12791;50.992;13.788;2022-08-25T05:11:41;17.63;;;14.98;;
24663;SDS011;12791;50.992;13.788;2022-08-25T05:14:08;15.65;;;14.05;;
24663;SDS011;12791;50.992;13.788;2022-08-25T05:16:37;16.00;;;14.20;;
24663;SDS011;12791;50.992;13.788;2022-08-25T05:19:06;16.65;;;14.93;;
24663;SDS011;12791;50.992;13.788;2022-08-25T05:21:33;14.65;;;13.02;;
24663;SDS011;12791;50.992;13.788;2022-08-25T05:24:01;15.98;;;14.48;;
24663;SDS011;12791;50.992;13.788;2022-08-25T05:26:29;15.63;;;14.13;;
24663;SDS011;12791;50.992;13.788;2022-08-25T05:28:57;14.73;;;13.20;;
24663;SDS011;12791;50.992;13.788;2022-08-25T05:31:25;18.05;;;14.52;;
24663;SDS011;12791;50.992;13.788;2022-08-25T05:33:53;14.05;;;12.85;;
24663;SDS011;12791;50.992;13.788;2022-08-25T05:36:22;15.43;;;13.70;;
24663;SDS011;12791;50.992;13.788;2022-08-25T05:38:50;15.90;;;14.25;;
24663;SDS011;12791;50.992;13.788;2022-08-25T05:41:17;17.48;;;15.68;;
24663;SDS011;12791;50.992;13.788;2022-08-25T05:43:46;16.92;;;15.18;;
24663;SDS011;12791;50.992;13.788;2022-08-25T05:46:15;23.75;;;19.40;;
24663;SDS011;12791;50.992;13.788;2022-08-25T05:48:44;23.35;;;18.25;;
24663;SDS011;12791;50.992;13.788;2022-08-25T05:51:11;18.98;;;16.27;;
24663;SDS011;12791;50.992;13.788;2022-08-25T05:53:40;20.25;;;16.30;;
24663;SDS011;12791;50.992;13.788;2022-08-25T05:56:09;20.65;;;16.30;;
24663;SDS011;12791;50.992;13.788;2022-08-25T05:58:37;19.05;;;16.95;;
24663;SDS011;12791;50.992;13.788;2022-08-25T06:01:05;21.45;;;17.75;;
24663;SDS011;12791;50.992;13.788;2022-08-25T06:03:45;19.98;;;17.02;;
24663;SDS011;12791;50.992;13.788;2022-08-25T06:06:12;17.20;;;15.50;;
24663;SDS011;12791;50.992;13.788;2022-08-25T06:08:41;23.67;;;19.80;;
24663;SDS011;12791;50.992;13.788;2022-08-25T06:11:08;19.50;;;17.60;;
24663;SDS011;12791;50.992;13.788;2022-08-25T06:13:35;22.17;;;18.58;;
24663;SDS011;12791;50.992;13.788;2022-08-25T06:16:02;21.52;;;18.95;;
24663;SDS011;12791;50.992;13.788;2022-08-25T06:18:29;22.38;;;17.85;;
24663;SDS011;12791;50.992;13.788;2022-08-25T06:20:55;23.88;;;17.42;;
24663;SDS011;12791;50.992;13.788;2022-08-25T06:23:22;18.83;;;16.75;;
24663;SDS011;12791;50.992;13.788;2022-08-25T06:25:50;22.08;;;16.02;;
24663;SDS011;12791;50.992;13.788;2022-08-25T06:28:18;24.27;;;17.58;;
24663;SDS011;12791;50.992;13.788;2022-08-25T06:30:46;23.27;;;18.35;;
24663;SDS011;12791;50.992;13.788;2022-08-25T06:33:13;21.88;;;17.80;;
24663;SDS011;12791;50.992;13.788;2022-08-25T06:35:40;20.05;;;17.45;;
24663;SDS011;12791;50.992;13.788;2022-08-25T06:38:07;20.70;;;18.50;;
24663;SDS011;12791;50.992;13.788;2022-08-25T06:40:34;19.75;;;17.48;;
24663;SDS011;12791;50.992;13.788;2022-08-25T06:43:02;20.17;;;17.77;;
24663;SDS011;12791;50.992;13.788;2022-08-25T06:45:32;21.70;;;17.35;;
24663;SDS011;12791;50.992;13.788;2022-08-25T06:47:59;29.92;;;22.27;;
24663;SDS011;12791;50.992;13.788;2022-08-25T06:50:26;28.80;;;22.88;;
24663;SDS011;12791;50.992;13.788;2022-08-25T06:52:53;22.65;;;18.85;;
24663;SDS011;12791;50.992;13.788;2022-08-25T06:55:19;22.83;;;18.98;;
24663;SDS011;12791;50.992;13.788;2022-08-25T06:57:46;20.88;;;17.50;;
24663;SDS011;12791;50.992;13.788;2022-08-25T07:00:14;21.10;;;18.05;;
24663;SDS011;12791;50.992;13.788;2022-08-25T07:02:41;27.67;;;24.15;;
24663;SDS011;12791;50.992;13.788;2022-08-25T07:05:08;24.55;;;21.95;;
24663;SDS011;12791;50.992;13.788;2022-08-25T07:07:35;25.15;;;20.65;;
24663;SDS011;12791;50.992;13.788;2022-08-25T07:10:02;26.25;;;21.85;;
24663;SDS011;12791;50.992;13.788;2022-08-25T07:12:29;28.85;;;25.20;;
24663;SDS011;12791;50.992;13.788;2022-08-25T07:14:56;25.20;;;22.10;;
24663;SDS011;12791;50.992;13.788;2022-08-25T07:17:24;24.20;;;21.70;;
24663;SDS011;12791;50.992;13.788;2022-08-25T07:19:51;29.17;;;21.85;;
24663;SDS011;12791;50.992;13.788;2022-08-25T07:22:17;23.42;;;20.92;;
24663;SDS011;12791;50.992;13.788;2022-08-25T07:24:44;30.50;;;25.52;;
24663;SDS011;12791;50.992;13.788;2022-08-25T07:27:11;35.75;;;27.00;;
24663;SDS011;12791;50.992;13.788;2022-08-25T07:29:37;24.92;;;21.42;;
24663;SDS011;12791;50.992;13.788;2022-08-25T07:32:05;25.15;;;21.08;;
24663;SDS011;12791;50.992;13.788;2022-08-25T07:34:33;29.77;;;21.40;;
24663;SDS011;12791;50.992;13.788;2022-08-25T07:37:17;23.10;;;18.33;;
24663;SDS011;12791;50.992;13.788;2022-08-25T07:39:45;28.60;;;23.23;;
24663;SDS011;12791;50.992;13.788;2022-08-25T07:42:12;23.20;;;20.63;;
24663;SDS011;12791;50.992;13.788;2022-08-25T07:44:39;24.00;;;19.40;;
24663;SDS011;12791;50.992;13.788;2022-08-25T07:47:05;21.08;;;18.77;;
24663;SDS011;12791;50.992;13.788;2022-08-25T07:49:33;20.80;;;18.50;;
24663;SDS011;12791;50.992;13.788;2022-08-25T07:52:00;32.40;;;25.38;;
24663;SDS011;12791;50.992;13.788;2022-08-25T07:54:26;28.38;;;22.52;;
24663;SDS011;12791;50.992;13.788;2022-08-25T07:56:54;32.30;;;26.08;;
24663;SDS011;12791;50.992;13.788;2022-08-25T07:59:20;26.90;;;22.83;;
24663;SDS011;12791;50.992;13.788;2022-08-25T08:01:47;26.92;;;23.65;;
24663;SDS011;12791;50.992;13.788;2022-08-25T08:04:13;33.70;;;25.17;;
24663;SDS011;12791;50.992;13.788;2022-08-25T08:06:41;24.15;;;21.63;;
24663;SDS011;12791;50.992;13.788;2022-08-25T08:09:08;20.95;;;18.92;;
24663;SDS011;12791;50.992;13.788;2022-08-25T08:11:37;24.00;;;21.50;;
24663;SDS011;12791;50.992;13.788;2022-08-25T08:14:08;20.80;;;18.75;;
24663;SDS011;12791;50.992;13.788;2022-08-25T08:16:35;24.77;;;21.67;;
24663;SDS011;12791;50.992;13.788;2022-08-25T08:19:02;24.70;;;20.25;;
24663;SDS011;12791;50.992;13.788;2022-08-25T08:21:31;19.15;;;17.17;;
24663;SDS011;12791;50.992;13.788;2022-08-25T08:24:00;21.05;;;17.65;;
24663;SDS011;12791;50.992;13.788;2022-08-25T08:26:27;28.30;;;20.85;;
24663;SDS011;12791;50.992;13.788;2022-08-25T08:28:54;34.15;;;23.30;;
24663;SDS011;12791;50.992;13.788;2022-08-25T08:31:22;33.13;;;25.05;;
24663;SDS011;12791;50.992;13.788;2022-08-25T08:33:51;26.65;;;21.35;;
24663;SDS011;12791;50.992;13.788;2022-08-25T08:36:19;21.98;;;19.13;;
24663;SDS011;12791;50.992;13.788;2022-08-25T08:38:46;24.42;;;20.73;;
24663;SDS011;12791;50.992;13.788;2022-08-25T08:41:20;18.73;;;16.92;;
24663;SDS011;12791;50.992;13.788;2022-08-25T08:44:23;19.88;;;17.85;;
24663;SDS011;12791;50.992;13.788;2022-08-25T08:46:58;22.02;;;19.73;;
24663;SDS011;12791;50.992;13.788;2022-08-25T08:52:00;18.42;;;16.55;;
24663;SDS011;12791;50.992;13.788;2022-08-25T08:54:28;16.75;;;15.15;;
24663;SDS011;12791;50.992;13.788;2022-08-25T08:57:03;22.27;;;17.48;;
24663;SDS011;12791;50.992;13.788;2022-08-25T08:59:37;18.40;;;16.52;;
24663;SDS011;12791;50.992;13.788;2022-08-25T09:02:11;18.00;;;16.15;;
24663;SDS011;12791;50.992;13.788;2022-08-25T09:04:41;17.02;;;15.23;;
24663;SDS011;12791;50.992;13.788;2022-08-25T09:07:12;19.83;;;17.25;;
24663;SDS011;12791;50.992;13.788;2022-08-25T09:09:43;16.00;;;14.40;;
24663;SDS011;12791;50.992;13.788;2022-08-25T09:12:12;17.70;;;15.90;;
24663;SDS011;12791;50.992;13.788;2022-08-25T09:14:48;19.25;;;17.33;;
24663;SDS011;12791;50.992;13.788;2022-08-25T09:17:27;15.35;;;13.95;;
24663;SDS011;12791;50.992;13.788;2022-08-25T09:20:24;22.90;;;16.17;;
24663;SDS011;12791;50.992;13.788;2022-08-25T09:23:05;18.95;;;16.40;;
24663;SDS011;12791;50.992;13.788;2022-08-25T09:25:40;17.70;;;15.25;;
24663;SDS011;12791;50.992;13.788;2022-08-25T09:28:17;24.85;;;19.80;;
24663;SDS011;12791;50.992;13.788;2022-08-25T09:30:47;20.50;;;18.42;;
24663;SDS011;12791;50.992;13.788;2022-08-25T09:33:20;22.73;;;17.60;;
24663;SDS011;12791;50.992;13.788;2022-08-25T09:35:49;21.67;;;17.58;;
24663;SDS011;12791;50.992;13.788;2022-08-25T09:38:16;22.33;;;19.30;;
24663;SDS011;12791;50.992;13.788;2022-08-25T09:40:44;20.02;;;17.63;;
24663;SDS011;12791;50.992;13.788;2022-08-25T09:43:18;24.25;;;17.85;;
24663;SDS011;12791;50.992;13.788;2022-08-25T09:45:49;16.33;;;14.68;;
24663;SDS011;12791;50.992;13.788;2022-08-25T09:48:24;23.42;;;16.33;;
24663;SDS011;12791;50.992;13.788;2022-08-25T09:50:53;17.40;;;14.02;;
24663;SDS011;12791;50.992;13.788;2022-08-25T09:53:24;25.23;;;16.67;;
24663;SDS011;12791;50.992;13.788;2022-08-25T09:55:55;16.63;;;14.68;;
24663;SDS011;12791;50.992;13.788;2022-08-25T09:58:26;14.13;;;12.88;;
24663;SDS011;12791;50.992;13.788;2022-08-25T10:00:59;21.63;;;13.55;;
24663;SDS011;12791;50.992;13.788;2022-08-25T10:03:28;23.58;;;14.90;;
24663;SDS011;12791;50.992;13.788;2022-08-25T10:06:00;20.33;;;12.90;;
24663;SDS011;12791;50.992;13.788;2022-08-25T10:08:32;19.10;;;12.40;;
24663;SDS011;12791;50.992;13.788;2022-08-25T10:11:02;14.30;;;11.15;;
24663;SDS011;12791;50.992;13.788;2022-08-25T10:13:42;19.67;;;11.88;;
24663;SDS011;12791;50.992;13.788;2022-08-25T10:16:12;20.20;;;12.15;;
24663;SDS011;12791;50.992;13.788;2022-08-25T10:18:59;14.15;;;9.90;;
24663;SDS011;12791;50.992;13.788;2022-08-25T10:21:27;21.75;;;12.85;;
24663;SDS011;12791;50.992;13.788;2022-08-25T10:23:54;21.00;;;11.68;;
24663;SDS011;12791;50.992;13.788;2022-08-25T10:26:22;21.98;;;11.35;;
24663;SDS011;12791;50.992;13.788;2022-08-25T10:29:07;25.30;;;10.15;;
24663;SDS011;12791;50.992;13.788;2022-08-25T10:31:43;25.73;;;10.35;;
24663;SDS011;12791;50.992;13.788;2022-08-25T10:34:24;21.27;;;10.23;;
24663;SDS011;12791;50.992;13.788;2022-08-25T10:37:05;16.98;;;10.50;;
24663;SDS011;12791;50.992;13.788;2022-08-25T10:39:39;19.63;;;9.77;;
24663;SDS011;12791;50.992;13.788;2022-08-25T10:42:19;15.90;;;8.75;;
24663;SDS011;12791;50.992;13.788;2022-08-25T10:45:05;14.45;;;9.13;;
24663;SDS011;12791;50.992;13.788;2022-08-25T10:50:51;27.48;;;9.27;;
24663;SDS011;12791;50.992;13.788;2022-08-25T10:53:25;18.70;;;9.27;;
24663;SDS011;12791;50.992;13.788;2022-08-25T10:56:05;27.08;;;9.43;;
24663;SDS011;12791;50.992;13.788;2022-08-25T11:01:43;22.05;;;9.20;;
24663;SDS011;12791;50.992;13.788;2022-08-25T11:06:51;19.25;;;8.75;;
24663;SDS011;12791;50.992;13.788;2022-08-25T11:09:22;14.02;;;7.88;;
24663;SDS011;12791;50.992;13.788;2022-08-25T11:11:53;21.67;;;9.13;;
24663;SDS011;12791;50.992;13.788;2022-08-25T11:14:24;21.65;;;8.63;;
24663;SDS011;12791;50.992;13.788;2022-08-25T11:16:58;25.80;;;8.88;;
24663;SDS011;12791;50.992;13.788;2022-08-25T11:19:30;27.42;;;10.15;;
24663;SDS011;12791;50.992;13.788;2022-08-25T11:22:00;30.02;;;9.40;;
24663;SDS011;12791;50.992;13.788;2022-08-25T11:24:35;25.05;;;9.55;;
24663;SDS011;12791;50.992;13.788;2022-08-25T11:27:08;23.48;;;9.20;;
24663;SDS011;12791;50.992;13.788;2022-08-25T11:29:38;21.42;;;7.72;;
24663;SDS011;12791;50.992;13.788;2022-08-25T11:32:10;18.75;;;8.15;;
24663;SDS011;12791;50.992;13.788;2022-08-25T11:34:36;20.23;;;8.57;;
24663;SDS011;12791;50.992;13.788;2022-08-25T11:37:04;20.63;;;8.50;;
24663;SDS011;12791;50.992;13.788;2022-08-25T11:39:43;27.80;;;8.07;;
24663;SDS011;12791;50.992;13.788;2022-08-25T11:42:28;34.58;;;8.52;;
24663;SDS011;12791;50.992;13.788;2022-08-25T11:45:04;18.08;;;7.93;;
24663;SDS011;12791;50.992;13.788;2022-08-25T11:47:49;18.52;;;7.43;;
24663;SDS011;12791;50.992;13.788;2022-08-25T11:50:28;16.05;;;8.05;;
24663;SDS011;12791;50.992;13.788;2022-08-25T11:52:56;20.80;;;8.15;;
24663;SDS011;12791;50.992;13.788;2022-08-25T11:55:29;28.17;;;8.32;;
24663;SDS011;12791;50.992;13.788;2022-08-25T11:58:16;21.75;;;8.38;;
24663;SDS011;12791;50.992;13.788;2022-08-25T12:00:54;25.60;;;9.05;;
24663;SDS011;12791;50.992;13.788;2022-08-25T12:06:20;16.67;;;7.72;;
24663;SDS011;12791;50.992;13.788;2022-08-25T12:08:51;18.35;;;7.55;;
24663;SDS011;12791;50.992;13.788;2022-08-25T12:11:47;32.88;;;8.40;;
24663;SDS011;12791;50.992;13.788;2022-08-25T12:14:31;24.70;;;8.27;;
24663;SDS011;12791;50.992;13.788;2022-08-25T12:17:11;24.33;;;8.65;;
24663;SDS011;12791;50.992;13.788;2022-08-25T12:25:09;22.55;;;8.73;;
24663;SDS011;12791;50.992;13.788;2022-08-25T12:27:47;20.60;;;8.25;;
24663;SDS011;12791;50.992;13.788;2022-08-25T12:30:20;18.08;;;8.18;;
24663;SDS011;12791;50.992;13.788;2022-08-25T12:38:03;22.00;;;8.60;;
24663;SDS011;12791;50.992;13.788;2022-08-25T12:40:34;13.98;;;7.25;;
24663;SDS011;12791;50.992;13.788;2022-08-25T12:43:08;25.70;;;7.65;;
24663;SDS011;12791;50.992;13.788;2022-08-25T12:51:06;17.05;;;7.22;;
24663;SDS011;12791;50.992;13.788;2022-08-25T12:53:41;21.75;;;7.07;;
24663;SDS011;12791;50.992;13.788;2022-08-25T12:56:21;25.80;;;8.10;;
24663;SDS011;12791;50.992;13.788;2022-08-25T12:58:54;19.35;;;8.27;;
24663;SDS011;12791;50.992;13.788;2022-08-25T13:01:40;21.70;;;7.30;;
24663;SDS011;12791;50.992;13.788;2022-08-25T13:04:39;25.48;;;7.47;;
24663;SDS011;12791;50.992;13.788;2022-08-25T13:07:36;21.20;;;8.40;;
24663;SDS011;12791;50.992;13.788;2022-08-25T13:10:17;24.52;;;7.82;;
24663;SDS011;12791;50.992;13.788;2022-08-25T13:12:51;18.52;;;6.95;;
24663;SDS011;12791;50.992;13.788;2022-08-25T13:15:26;15.32;;;7.03;;
24663;SDS011;12791;50.992;13.788;2022-08-25T13:18:11;15.68;;;6.70;;
24663;SDS011;12791;50.992;13.788;2022-08-25T13:20:44;16.38;;;7.28;;
24663;SDS011;12791;50.992;13.788;2022-08-25T13:23:16;26.63;;;8.02;;
24663;SDS011;12791;50.992;13.788;2022-08-25T13:25:51;16.52;;;7.10;;
24663;SDS011;12791;50.992;13.788;2022-08-25T13:28:20;19.17;;;7.28;;
24663;SDS011;12791;50.992;13.788;2022-08-25T13:31:02;16.25;;;7.07;;
24663;SDS011;12791;50.992;13.788;2022-08-25T13:33:31;19.90;;;7.40;;
24663;SDS011;12791;50.992;13.788;2022-08-25T13:36:00;17.92;;;8.30;;
24663;SDS011;12791;50.992;13.788;2022-08-25T13:38:47;9.43;;;6.20;;
24663;SDS011;12791;50.992;13.788;2022-08-25T13:41:18;17.65;;;7.15;;
24663;SDS011;12791;50.992;13.788;2022-08-25T13:43:48;17.80;;;7.32;;
24663;SDS011;12791;50.992;13.788;2022-08-25T13:46:19;17.75;;;6.53;;
24663;SDS011;12791;50.992;13.788;2022-08-25T13:48:47;18.42;;;6.65;;
24663;SDS011;12791;50.992;13.788;2022-08-25T13:51:18;20.33;;;6.82;;
24663;SDS011;12791;50.992;13.788;2022-08-25T13:53:51;20.58;;;7.22;;
24663;SDS011;12791;50.992;13.788;2022-08-25T13:56:23;25.98;;;7.63;;
24663;SDS011;12791;50.992;13.788;2022-08-25T13:58:53;31.58;;;7.65;;
24663;SDS011;12791;50.992;13.788;2022-08-25T14:01:21;27.50;;;7.63;;
24663;SDS011;12791;50.992;13.788;2022-08-25T14:03:50;28.90;;;7.35;;
24663;SDS011;12791;50.992;13.788;2022-08-25T14:06:19;25.08;;;7.43;;
24663;SDS011;12791;50.992;13.788;2022-08-25T14:08:48;17.67;;;6.90;;
24663;SDS011;12791;50.992;13.788;2022-08-25T14:11:33;24.48;;;7.60;;
24663;SDS011;12791;50.992;13.788;2022-08-25T14:14:09;20.20;;;7.20;;
24663;SDS011;12791;50.992;13.788;2022-08-25T14:16:39;23.75;;;8.10;;
24663;SDS011;12791;50.992;13.788;2022-08-25T14:19:12;28.30;;;7.78;;
24663;SDS011;12791;50.992;13.788;2022-08-25T14:21:41;23.42;;;7.70;;
24663;SDS011;12791;50.992;13.788;2022-08-25T14:24:09;19.17;;;7.05;;
24663;SDS011;12791;50.992;13.788;2022-08-25T14:26:40;22.83;;;8.07;;
24663;SDS011;12791;50.992;13.788;2022-08-25T14:29:08;27.33;;;7.68;;
24663;SDS011;12791;50.992;13.788;2022-08-25T14:31:35;22.52;;;6.80;;
24663;SDS011;12791;50.992;13.788;2022-08-25T14:34:08;26.65;;;6.88;;
24663;SDS011;12791;50.992;13.788;2022-08-25T14:36:38;19.15;;;6.90;;
24663;SDS011;12791;50.992;13.788;2022-08-25T14:39:06;22.27;;;6.65;;
24663;SDS011;12791;50.992;13.788;2022-08-25T14:41:35;16.92;;;6.50;;
24663;SDS011;12791;50.992;13.788;2022-08-25T14:44:05;18.77;;;7.00;;
24663;SDS011;12791;50.992;13.788;2022-08-25T14:46:33;21.45;;;6.82;;
24663;SDS011;12791;50.992;13.788;2022-08-25T14:49:03;16.33;;;6.60;;
24663;SDS011;12791;50.992;13.788;2022-08-25T14:51:32;23.30;;;7.65;;
24663;SDS011;12791;50.992;13.788;2022-08-25T14:53:59;18.05;;;6.32;;
24663;SDS011;12791;50.992;13.788;2022-08-25T14:56:30;28.63;;;7.18;;
24663;SDS011;12791;50.992;13.788;2022-08-25T14:58:57;17.77;;;7.15;;
24663;SDS011;12791;50.992;13.788;2022-08-25T15:01:24;25.45;;;7.43;;